Time;durP1;ratioP1;P1;durP2;ratioP2;P2;SDS_P1;SDS_P2;PMS_P1;PMS_P2;Temp;Humidity;BMP_temperature;BMP_pressure;BME280_temperature;BME280_humidity;BME280_pressure;Samples;Min_cycle;Max_cycle;Signal;HPM_P1;HPM_P2
2022/04/11 00:04:37;;;;;;;7.15;3.63;;;;;;;1.27;58.47;100354.44;10307951;28;20054;-75
2022/04/11 00:09:39;;;;;;;6.05;3.55;;;;;;;1.29;58.72;100355.25;10304924;28;20660;-75
2022/04/11 00:14:41;;;;;;;7.32;3.75;;;;;;;1.38;58.62;100343.97;10307837;28;20066;-75
2022/04/11 00:19:43;;;;;;;7.05;3.75;;;;;;;1.44;58.55;100344.72;10306406;28;20145;-75
2022/04/11 00:24:44;;;;;;;7.60;3.95;;;;;;;1.39;58.36;100349.09;10306261;28;20054;-75
2022/04/11 00:29:46;;;;;;;6.30;3.53;;;;;;;1.38;58.41;100353.38;10306610;28;20109;-75
2022/04/11 00:34:49;;;;;;;6.78;3.83;;;;;;;1.33;58.47;100346.59;10305772;28;20093;-76
2022/04/11 00:39:51;;;;;;;6.80;3.47;;;;;;;1.27;58.52;100350.16;10288144;28;20104;-75
2022/04/11 00:44:52;;;;;;;7.72;3.97;;;;;;;1.12;58.27;100339.19;10304834;28;20185;-75
2022/04/11 00:50:05;;;;;;;10.30;3.70;;;;;;;0.90;59.36;100341.25;10305507;28;20137;-75
2022/04/11 00:55:07;;;;;;;7.07;3.58;;;;;;;0.98;58.75;100336.84;10305465;28;20429;-75
2022/04/11 01:00:10;;;;;;;7.47;3.70;;;;;;;1.01;59.06;100335.94;10305645;28;20054;-75
2022/04/11 01:05:13;;;;;;;7.50;3.80;;;;;;;0.98;58.77;100335.97;10305768;28;20116;-75
2022/04/11 01:10:15;;;;;;;6.07;3.58;;;;;;;0.87;59.46;100332.72;10303986;28;20054;-75
2022/04/11 01:15:16;;;;;;;6.13;3.53;;;;;;;1.03;59.19;100334.19;10304307;28;20046;-75
2022/04/11 01:20:21;;;;;;;7.35;3.92;;;;;;;1.14;59.14;100328.00;10303653;28;20914;-75
2022/04/11 01:25:23;;;;;;;7.82;4.72;;;;;;;1.14;58.97;100335.72;10304633;28;20085;-76
2022/04/11 01:30:25;;;;;;;11.57;5.05;;;;;;;1.00;58.75;100335.09;10301984;28;20564;-76
2022/04/11 01:35:27;;;;;;;7.07;4.10;;;;;;;1.00;59.02;100335.09;10286901;28;20104;-75
2022/04/11 01:40:29;;;;;;;7.80;4.07;;;;;;;1.08;59.04;100328.09;10300906;28;20469;-76
2022/04/11 01:45:30;;;;;;;7.13;3.83;;;;;;;1.08;59.40;100328.09;10299055;28;20140;-75
2022/04/11 01:50:32;;;;;;;36.67;25.73;;;;;;;0.92;58.89;100321.47;10300865;28;20915;-75
2022/04/11 01:55:34;;;;;;;16.33;11.93;;;;;;;0.69;59.48;100317.53;10297861;28;20058;-76
2022/04/11 02:00:38;;;;;;;17.63;11.43;;;;;;;0.78;59.78;100317.38;10302265;28;20141;-76
2022/04/11 02:05:41;;;;;;;9.50;6.30;;;;;;;0.85;59.80;100317.28;10310225;28;20058;-75
2022/04/11 02:10:43;;;;;;;7.75;4.75;;;;;;;0.95;59.67;100313.69;10310315;28;20054;-75
2022/04/11 02:15:45;;;;;;;9.30;4.90;;;;;;;0.87;59.70;100307.81;10310327;28;20109;-75
2022/04/11 02:20:47;;;;;;;9.13;5.10;;;;;;;0.94;59.65;100298.28;10311930;28;20054;-75
2022/04/11 02:25:48;;;;;;;9.73;4.80;;;;;;;1.12;59.59;100293.69;10310245;28;20134;-75
2022/04/11 02:30:50;;;;;;;8.68;4.57;;;;;;;1.18;59.57;100293.59;10311291;28;20078;-75
2022/04/11 02:35:52;;;;;;;8.93;5.72;;;;;;;1.24;59.57;100290.91;10312319;28;20516;-75
2022/04/11 02:40:53;;;;;;;10.32;5.30;;;;;;;1.34;59.43;100289.88;10312082;28;20109;-75
2022/04/11 02:45:56;;;;;;;9.75;5.35;;;;;;;1.28;59.29;100289.13;10312121;28;20090;-75
2022/04/11 02:50:58;;;;;;;7.93;5.05;;;;;;;1.09;59.78;100283.47;10319314;28;20085;-75
2022/04/11 02:56:00;;;;;;;7.05;4.45;;;;;;;1.19;59.88;100277.28;10302761;28;20060;-75
2022/04/11 03:01:02;;;;;;;9.90;4.80;;;;;;;1.23;59.63;100278.06;10319169;28;20090;-75
2022/04/11 03:06:04;;;;;;;10.20;5.28;;;;;;;1.27;59.72;100282.28;10314504;28;20058;-75
2022/04/11 03:11:05;;;;;;;8.45;5.07;;;;;;;1.32;59.59;100285.63;10294843;28;20063;-76
2022/04/11 03:16:07;;;;;;;7.50;4.85;;;;;;;1.28;59.57;100282.25;10312157;28;21096;-76
2022/04/11 03:21:09;;;;;;;9.18;4.50;;;;;;;1.20;59.95;100273.81;10295130;28;20049;-75
2022/04/11 03:26:11;;;;;;;12.93;7.00;;;;;;;1.24;59.85;100278.03;10310585;28;20090;-75
2022/04/11 03:31:13;;;;;;;11.27;6.93;;;;;;;1.25;59.87;100278.91;10310700;28;20050;-75
2022/04/11 03:36:14;;;;;;;8.77;5.93;;;;;;;1.24;59.94;100272.88;10311611;28;20540;-75
2022/04/11 03:41:16;;;;;;;8.60;5.10;;;;;;;1.30;59.88;100262.47;10310443;28;20572;-76
2022/04/11 03:46:18;;;;;;;6.97;5.30;;;;;;;1.36;59.67;100270.09;10310355;28;20096;-75
2022/04/11 03:51:20;;;;;;;9.15;5.70;;;;;;;1.12;59.80;100265.34;10312417;28;20129;-76
2022/04/11 03:56:22;;;;;;;10.20;5.38;;;;;;;1.17;59.83;100266.16;10310002;28;20050;-75
2022/04/11 04:01:25;;;;;;;7.57;5.22;;;;;;;1.18;59.71;100257.53;10309152;28;20184;-76
2022/04/11 04:06:27;;;;;;;10.90;5.70;;;;;;;1.13;60.00;100253.34;10310914;28;20050;-76
2022/04/11 04:11:29;;;;;;;10.35;5.28;;;;;;;1.06;59.88;100252.59;10310207;28;20051;-75
2022/04/11 04:16:31;;;;;;;10.68;5.10;;;;;;;1.04;59.98;100259.47;10309961;28;20169;-75
2022/04/11 04:21:33;;;;;;;13.32;5.78;;;;;;;1.00;60.19;100262.13;10310422;28;20051;-75
2022/04/11 04:26:34;;;;;;;13.88;5.88;;;;;;;0.83;60.05;100261.56;10309564;28;20061;-75
2022/04/11 04:31:36;;;;;;;10.85;5.95;;;;;;;0.73;60.38;100262.56;10308625;28;20062;-75
2022/04/11 04:36:38;;;;;;;9.25;5.85;;;;;;;0.63;60.72;100264.41;10309547;28;20985;-75
2022/04/11 04:41:40;;;;;;;9.15;5.20;;;;;;;0.54;61.20;100267.13;10308595;28;20078;-75
2022/04/11 04:46:42;;;;;;;11.27;5.90;;;;;;;0.66;60.98;100274.66;10308864;28;20097;-75
2022/04/11 04:51:44;;;;;;;9.00;5.55;;;;;;;0.69;60.87;100261.75;10309634;28;20680;-75
2022/04/11 04:56:49;;;;;;;8.80;5.68;;;;;;;0.77;60.76;100280.50;10308667;28;20167;-76
2022/04/11 05:01:51;;;;;;;10.77;6.05;;;;;;;0.79;60.69;100273.59;10307008;28;20058;-76
2022/04/11 05:06:53;;;;;;;9.18;5.93;;;;;;;0.81;60.57;100277.00;10308084;28;20068;-75
2022/04/11 05:11:54;;;;;;;12.15;6.35;;;;;;;0.83;60.55;100277.81;10306601;28;20054;-75
2022/04/11 05:16:56;;;;;;;11.10;6.30;;;;;;;0.90;60.79;100271.72;10305234;28;20085;-75
2022/04/11 05:21:58;;;;;;;10.73;6.13;;;;;;;0.99;60.59;100276.72;10304900;28;20197;-75
2022/04/11 05:27:00;;;;;;;9.40;6.32;;;;;;;1.06;60.49;100275.75;10303668;28;20560;-76
2022/04/11 05:32:02;;;;;;;9.52;5.80;;;;;;;1.16;60.52;100267.00;10302998;28;20148;-75
2022/04/11 05:37:04;;;;;;;10.07;6.28;;;;;;;1.28;60.34;100274.53;10303931;28;20054;-76
2022/04/11 05:42:07;;;;;;;7.03;5.57;;;;;;;1.31;60.22;100283.94;10305085;28;20145;-75
2022/04/11 05:47:08;;;;;;;9.70;5.93;;;;;;;1.38;60.12;100276.97;10304434;28;20054;-75
2022/04/11 05:52:14;;;;;;;8.02;5.15;;;;;;;1.43;60.01;100277.72;10280125;28;20389;-75
2022/04/11 05:57:16;;;;;;;7.63;5.40;;;;;;;1.47;59.74;100279.38;10303370;28;20572;-74
2022/04/11 06:02:19;;;;;;;8.60;6.07;;;;;;;1.56;59.75;100274.06;10299976;28;20404;-83
2022/04/11 06:07:25;;;;;;;12.95;5.80;;;;;;;1.75;59.77;100276.28;10272768;28;1199835;-83
2022/04/11 06:12:43;;;;;;;12.30;8.55;;;;;;;1.73;60.13;100278.03;10314013;28;20074;-83
2022/04/11 06:17:54;;;;;;;12.40;8.95;;;;;;;1.86;60.03;100269.19;10312182;28;20432;-83
2022/04/11 06:22:58;;;;;;;;;;;;;;;1.86;60.04;100274.34;10294999;28;20065;-82
2022/04/11 06:28:01;;;;;;;10.85;5.80;;;;;;;2.12;58.84;100269.53;10312463;28;19925;-83
2022/04/11 06:33:11;;;;;;;9.52;5.20;;;;;;;2.13;58.82;100273.78;10317321;28;20058;-81
2022/04/11 06:38:13;;;;;;;10.13;5.57;;;;;;;2.35;58.75;100274.22;10315183;28;20113;-82
2022/04/11 06:43:15;;;;;;;8.52;6.00;;;;;;;2.52;58.32;100266.13;10298085;28;20093;-82
2022/04/11 06:48:16;;;;;;;10.00;5.60;;;;;;;2.68;58.24;100259.75;10314002;28;20086;-81
2022/04/11 06:53:19;;;;;;;11.02;5.80;;;;;;;2.74;58.04;100255.28;10316231;28;20519;-82
2022/04/11 06:58:21;;;;;;;8.85;5.70;;;;;;;2.93;57.44;100251.38;10314845;28;20083;-82
2022/04/11 07:03:22;;;;;;;9.40;5.55;;;;;;;3.16;56.98;100253.41;10313703;28;20104;-82
2022/04/11 07:08:24;;;;;;;9.27;5.90;;;;;;;3.39;57.12;100252.84;10314121;28;20129;-82
2022/04/11 07:13:26;;;;;;;10.43;6.20;;;;;;;3.62;56.55;100246.16;10313812;28;20062;-82
2022/04/11 07:18:28;;;;;;;9.95;6.20;;;;;;;3.75;55.81;100232.03;10313665;28;20129;-82
2022/04/11 07:23:30;;;;;;;13.65;6.05;;;;;;;3.67;55.80;100233.13;10314124;28;20463;-82
2022/04/11 07:28:32;;;;;;;12.05;6.38;;;;;;;3.72;55.63;100232.09;10312839;28;20102;-82
2022/04/11 07:33:35;;;;;;;10.80;5.97;;;;;;;3.89;55.81;100226.50;10315391;28;20512;-82
2022/04/11 07:38:36;;;;;;;10.25;5.70;;;;;;;4.29;55.12;100218.44;10321293;28;20062;-82
2022/04/11 07:43:38;;;;;;;10.95;6.35;;;;;;;5.04;53.74;100210.88;10303107;28;20082;-83
2022/04/11 07:48:40;;;;;;;11.80;6.30;;;;;;;5.99;52.13;100206.66;10319096;28;20050;-83
2022/04/11 07:53:42;;;;;;;11.43;6.72;;;;;;;6.81;51.00;100212.19;10300905;28;20058;-82
2022/04/11 07:58:44;;;;;;;12.68;6.05;;;;;;;7.37;48.99;100207.25;10318352;28;20050;-82
2022/04/11 08:03:45;;;;;;;9.20;6.22;;;;;;;7.80;48.29;100197.53;10317381;28;20105;-82
2022/04/11 08:08:47;;;;;;;10.57;6.28;;;;;;;8.44;47.53;100186.81;10318174;28;20050;-82
2022/04/11 08:13:50;;;;;;;14.23;6.63;;;;;;;8.52;46.92;100190.75;10316697;28;20054;-82
2022/04/11 08:18:52;;;;;;;10.45;6.47;;;;;;;9.15;45.79;100188.56;10317497;28;20054;-83
2022/04/11 08:23:58;;;;;;;10.38;6.18;;;;;;;9.27;43.00;100187.94;10312898;28;20062;-82
2022/04/11 08:29:04;;;;;;;10.38;6.47;;;;;;;9.34;44.44;100179.72;10316720;28;20074;-83
2022/04/11 08:34:06;;;;;;;13.38;5.97;;;;;;;9.66;44.35;100180.72;10318934;28;20078;-81
2022/04/11 08:39:08;;;;;;;9.88;6.30;;;;;;;9.80;44.94;100170.38;10315191;28;20463;-82
2022/04/11 08:44:13;;;;;;;11.32;6.28;;;;;;;9.98;43.32;100166.78;10316385;28;20108;-83
2022/04/11 08:49:16;;;;;;;10.18;5.68;;;;;;;10.38;42.70;100160.22;10317962;28;20488;-81
2022/04/11 08:54:20;;;;;;;10.95;5.65;;;;;;;10.04;42.64;100166.47;10318766;28;20057;-83
2022/04/11 08:59:33;;;;;;;9.77;5.68;;;;;;;9.98;41.83;100151.13;10316499;28;20054;-83
2022/04/11 09:04:54;;;;;;;19.95;5.97;;;;;;;10.56;41.67;100146.16;10317367;28;20816;-82
2022/04/11 09:16:54;;;;;;;10.15;4.75;;;;;;;11.17;39.81;100131.25;10230773;28;20489;-79
2022/04/11 09:21:56;;;;;;;9.55;4.65;;;;;;;11.70;40.21;100132.44;10226411;29;20066;-80
2022/04/11 09:27:04;;;;;;;10.13;4.10;;;;;;;11.87;38.59;100135.69;10234876;28;20138;-80
2022/04/11 09:32:09;;;;;;;9.40;4.20;;;;;;;11.91;38.19;100133.72;10242837;29;20055;-79
2022/04/11 09:37:12;;;;;;;6.40;3.70;;;;;;;12.31;38.07;100116.38;10241460;29;20498;-80
2022/04/11 09:42:16;;;;;;;8.52;4.00;;;;;;;12.13;37.25;100102.59;10242070;28;20132;-81
2022/04/11 09:47:18;;;;;;;6.80;3.95;;;;;;;12.44;37.16;100091.03;10232224;29;20171;-81
2022/04/11 09:52:20;;;;;;;6.03;2.78;;;;;;;12.91;36.52;100086.97;10232646;28;20137;-81
2022/04/11 09:57:31;;;;;;;6.20;2.80;;;;;;;13.02;34.23;100077.53;10226502;28;20055;-81
2022/04/11 10:02:36;;;;;;;4.35;2.30;;;;;;;13.29;33.13;100068.59;10230875;29;20051;-80
2022/04/11 10:07:38;;;;;;;6.75;2.17;;;;;;;13.51;32.40;100066.25;10271027;28;21097;-80
2022/04/11 10:12:40;;;;;;;5.75;2.20;;;;;;;13.59;32.07;100066.53;10310400;28;20447;-80
2022/04/11 10:17:42;;;;;;;4.28;2.13;;;;;;;13.72;30.55;100062.09;10307464;28;20520;-81
2022/04/11 10:22:55;;;;;;;4.43;1.92;;;;;;;13.87;27.82;100056.69;10302158;28;20106;-80
2022/04/11 10:28:20;;;;;;;5.22;2.35;;;;;;;13.99;27.17;100050.56;10302561;28;20232;-80
2022/04/11 10:33:40;;;;;;;4.68;2.00;;;;;;;13.90;30.00;100052.06;10303360;28;20098;-80
2022/04/11 10:39:14;;;;;;;5.47;2.08;;;;;;;13.62;29.85;100041.81;10303718;28;20046;-80
2022/04/11 10:44:33;;;;;;;4.65;1.85;;;;;;;13.64;29.13;100029.41;10265251;28;20082;-80
2022/04/11 10:49:56;;;;;;;3.88;2.22;;;;;;;13.80;27.94;100008.97;10307869;28;20054;-80
2022/04/11 10:55:14;;;;;;;4.13;1.98;;;;;;;13.82;27.61;100006.25;10306504;28;20124;-80
2022/04/11 11:00:26;;;;;;;5.60;2.13;;;;;;;13.83;27.87;100000.88;10307354;28;20397;-80
2022/04/11 11:05:37;;;;;;;6.93;2.30;;;;;;;13.60;28.80;100001.66;10306390;28;20046;-80
2022/04/11 11:11:17;;;;;;;5.85;1.85;;;;;;;13.67;27.88;100002.91;10313105;28;20538;-80
2022/04/11 11:16:22;;;;;;;6.13;2.20;;;;;;;13.74;28.13;99993.63;10313828;28;20060;-80
2022/04/11 11:21:44;;;;;;;5.38;2.08;;;;;;;13.85;29.58;99983.19;10314118;28;20157;-80
2022/04/11 11:27:00;;;;;;;7.45;2.15;;;;;;;14.00;28.00;99976.84;10315481;28;20120;-81
2022/04/11 11:32:05;;;;;;;5.88;2.17;;;;;;;13.95;28.35;99980.72;10317454;28;20141;-82
2022/04/11 11:37:12;;;;;;;8.52;2.80;;;;;;;14.15;28.72;99967.81;10316585;28;20057;-81
2022/04/11 11:42:15;;;;;;;3.38;1.92;;;;;;;14.21;29.41;99962.09;10315293;28;20513;-81
2022/04/11 11:47:28;;;;;;;7.50;2.28;;;;;;;14.30;27.59;99950.91;10316400;28;20692;-82
2022/04/11 11:52:40;;;;;;;4.85;2.28;;;;;;;14.48;27.44;99935.50;10318109;28;20060;-81
2022/04/11 11:57:42;;;;;;;6.00;2.33;;;;;;;14.49;29.35;99935.41;10316134;28;20168;-81
2022/04/11 12:08:05;;;;;;;7.22;2.60;;;;;;;14.46;29.27;99919.84;10312861;28;20081;-81
2022/04/11 12:13:59;;;;;;;7.25;2.47;;;;;;;14.25;28.41;99910.94;10312981;28;20058;-81
2022/04/11 12:32:32;;;;;;;4.95;2.33;;;;;;;14.91;30.01;99902.34;10303903;28;20522;-82
2022/04/11 12:44:29;;;;;;;5.18;2.50;;;;;;;14.99;29.25;99886.78;10269592;28;20058;-81
2022/04/11 12:49:46;;;;;;;5.15;2.45;;;;;;;14.47;29.05;99884.66;10306723;28;20082;-81
2022/04/11 13:01:43;;;;;;;4.68;2.03;;;;;;;14.95;29.41;99860.78;10311576;28;20097;-82
2022/04/11 13:06:57;;;;;;;3.90;2.10;;;;;;;14.92;29.24;99853.16;10295106;28;20062;-81
2022/04/11 13:12:01;;;;;;;5.82;2.75;;;;;;;14.87;31.08;99848.25;10311496;28;20476;-81
2022/04/11 13:22:34;;;;;;;4.75;2.25;;;;;;;15.07;30.06;99828.22;10312400;28;20046;-81
2022/04/11 13:27:38;;;;;;;7.43;2.42;;;;;;;15.08;29.09;99828.09;10298458;28;20050;-81
2022/04/11 13:32:41;;;;;;;6.00;2.63;;;;;;;14.88;29.73;99825.38;10314392;28;20416;-81
2022/04/11 13:37:46;;;;;;;6.45;2.55;;;;;;;15.13;30.17;99817.19;10311161;28;20136;-81
2022/04/11 13:42:54;;;;;;;5.05;2.10;;;;;;;14.90;30.14;99800.59;10312656;28;20078;-81
2022/04/11 13:48:13;;;;;;;5.65;2.30;;;;;;;15.01;30.46;99787.41;10314038;28;20053;-81
2022/04/11 13:53:17;;;;;;;6.97;2.58;;;;;;;15.06;29.29;99779.97;10315313;28;20140;-81
2022/04/11 13:58:19;;;;;;;5.38;2.28;;;;;;;15.24;28.87;99773.22;10315077;28;20093;-81
2022/04/11 14:03:21;;;;;;;4.97;2.20;;;;;;;15.05;29.86;99764.28;10310628;28;20050;-82
2022/04/11 14:08:26;;;;;;;3.97;2.30;;;;;;;15.31;28.46;99765.63;10306774;28;20088;-81
2022/04/11 14:13:31;;;;;;;4.05;2.40;;;;;;;15.57;27.72;99750.38;10313439;28;20066;-79
2022/04/11 14:18:40;;;;;;;4.93;2.63;;;;;;;15.38;28.81;99743.09;10312266;28;20134;-80
2022/04/11 14:23:47;;;;;;;4.97;2.20;;;;;;;15.59;28.09;99741.34;10314708;28;20050;-80
2022/04/11 14:28:49;;;;;;;5.32;2.40;;;;;;;15.65;28.50;99734.75;10313606;28;20058;-81
2022/04/11 14:33:54;;;;;;;4.13;2.20;;;;;;;15.50;27.74;99734.22;10296007;28;20058;-80
2022/04/11 14:38:57;;;;;;;4.97;2.40;;;;;;;15.58;27.63;99720.38;10295468;28;20061;-81
2022/04/11 14:44:08;;;;;;;4.25;2.22;;;;;;;15.68;28.41;99721.28;10315381;28;20054;-80
2022/04/11 14:49:10;;;;;;;5.25;2.35;;;;;;;15.63;29.49;99716.44;10319843;28;20508;-81
2022/04/11 14:54:36;;;;;;;6.95;2.22;;;;;;;15.59;28.81;99714.97;10322198;28;21054;-81
2022/04/11 14:59:42;;;;;;;5.28;2.38;;;;;;;15.78;28.51;99712.47;10322507;28;20050;-81
2022/04/11 15:04:47;;;;;;;5.35;2.60;;;;;;;15.75;27.71;99699.56;10322037;28;20097;-80
2022/04/11 15:09:50;;;;;;;5.03;2.08;;;;;;;15.85;27.92;99700.47;10320444;28;20054;-81
2022/04/11 15:14:53;;;;;;;5.22;2.20;;;;;;;15.96;28.04;99689.81;10315092;28;20567;-80
2022/04/11 15:19:56;;;;;;;6.05;2.10;;;;;;;16.02;28.07;99689.28;10319340;28;20124;-80
2022/04/11 15:24:59;;;;;;;6.05;2.40;;;;;;;15.94;26.76;99678.56;10320964;28;20104;-81
2022/04/11 15:30:02;;;;;;;4.30;2.20;;;;;;;15.69;27.21;99679.00;10317062;28;20050;-81
2022/04/11 15:35:05;;;;;;;4.93;1.88;;;;;;;15.94;28.56;99667.16;10318024;28;20504;-81
2022/04/11 15:40:10;;;;;;;3.17;1.90;;;;;;;15.82;26.61;99663.78;10319250;28;20578;-80
2022/04/11 15:45:13;;;;;;;4.38;1.95;;;;;;;15.64;27.88;99664.50;10313738;28;20069;-80
2022/04/11 15:50:15;;;;;;;4.75;1.95;;;;;;;15.85;26.69;99658.28;10318996;28;20104;-81
2022/04/11 15:56:18;;;;;;;3.55;1.85;;;;;;;15.83;25.46;99662.84;10317217;28;20054;-81
2022/04/11 16:01:20;;;;;;;4.88;1.80;;;;;;;15.99;26.49;99650.00;10318309;28;20046;-81
2022/04/11 16:06:25;;;;;;;3.30;1.60;;;;;;;15.85;26.64;99638.97;10314966;28;20148;-81
2022/04/11 16:11:31;;;;;;;5.13;1.80;;;;;;;15.82;26.62;99639.22;10319303;28;20165;-81
2022/04/11 16:16:41;;;;;;;5.22;1.98;;;;;;;15.67;26.36;99641.38;10318190;28;20054;-81
2022/04/11 16:21:44;;;;;;;4.35;1.85;;;;;;;15.50;27.41;99646.41;10301297;28;20137;-81
2022/04/11 16:26:48;;;;;;;6.55;2.08;;;;;;;15.26;28.18;99646.63;10318823;28;20559;-80
2022/04/11 16:31:51;;;;;;;4.07;1.90;;;;;;;15.14;29.15;99643.19;10312068;28;20531;-80
2022/04/11 16:36:53;;;;;;;4.95;1.98;;;;;;;15.18;29.61;99642.00;10312124;28;20512;-80
2022/04/11 16:41:59;;;;;;;5.47;2.10;;;;;;;15.41;28.72;99638.28;10311224;28;20050;-80
2022/04/11 16:47:01;;;;;;;7.45;2.33;;;;;;;15.89;28.60;99641.22;10312349;28;20630;-81
2022/04/11 16:52:03;;;;;;;6.75;2.10;;;;;;;15.84;28.93;99632.84;10310367;28;20100;-81
2022/04/11 16:57:06;;;;;;;5.18;2.05;;;;;;;15.62;28.86;99621.63;10299191;28;20069;-81
2022/04/11 17:02:09;;;;;;;4.25;1.92;;;;;;;15.56;29.29;99632.69;10316008;28;20050;-81
2022/04/11 17:07:14;;;;;;;5.45;2.30;;;;;;;15.11;30.72;99643.47;10279847;28;20055;-81
2022/04/11 17:12:17;;;;;;;4.47;1.92;;;;;;;14.61;30.98;99627.50;10273433;28;20047;-82
2022/04/11 17:22:40;;;;;;;4.47;2.20;;;;;;;14.07;32.31;99636.19;10268977;28;20082;-82
2022/04/11 17:27:43;;;;;;;4.45;2.08;;;;;;;13.84;33.07;99639.75;10270048;28;20110;-81
2022/04/11 17:32:45;;;;;;;4.20;2.10;;;;;;;13.61;32.61;99636.31;10268057;28;20105;-81
2022/04/11 17:37:49;;;;;;;4.47;2.22;;;;;;;13.41;33.36;99644.00;10267674;28;20144;-82
2022/04/11 17:42:52;;;;;;;3.92;2.00;;;;;;;13.16;33.83;99642.38;10268360;28;20055;-81
2022/04/11 17:47:56;;;;;;;5.30;2.10;;;;;;;12.91;34.54;99645.16;10270201;28;20097;-82
2022/04/11 17:52:58;;;;;;;4.45;2.20;;;;;;;12.68;34.96;99643.38;10268978;28;20118;-82
2022/04/11 17:58:00;;;;;;;4.60;2.30;;;;;;;12.46;35.52;99641.47;10270430;28;20062;-81
2022/04/11 18:03:07;;;;;;;4.47;2.40;;;;;;;12.29;35.33;99652.34;10269897;28;21018;-82
2022/04/11 18:08:15;;;;;;;5.15;2.25;;;;;;;12.22;35.49;99666.78;10267849;28;20060;-80
2022/04/11 18:13:20;;;;;;;4.65;2.30;;;;;;;12.09;35.62;99664.19;10268785;28;20134;-80
2022/04/11 18:18:22;;;;;;;4.65;2.30;;;;;;;11.97;36.18;99659.78;10272012;28;20130;-81
2022/04/11 18:23:25;;;;;;;4.78;2.30;;;;;;;11.82;36.21;99660.88;10271882;28;20496;-81
2022/04/11 18:33:49;;;;;;;4.80;2.45;;;;;;;11.57;37.04;99666.09;10271820;28;20059;-81
2022/04/11 18:38:51;;;;;;;6.38;3.40;;;;;;;11.48;37.64;99668.53;10270245;28;20090;-81
2022/04/11 18:43:53;;;;;;;7.97;4.07;;;;;;;11.38;38.17;99680.56;10264238;28;21039;-81
2022/04/11 18:48:55;;;;;;;8.00;3.90;;;;;;;11.17;38.61;99680.19;10267445;28;20110;-81
2022/04/11 18:53:56;;;;;;;7.55;3.78;;;;;;;11.00;39.01;99688.28;10267930;28;20477;-81
2022/04/11 18:59:00;;;;;;;7.07;2.95;;;;;;;10.93;38.37;99685.22;10266635;28;20054;-81
2022/04/11 19:04:06;;;;;;;6.20;2.72;;;;;;;10.94;38.96;99689.53;10266623;28;20090;-81
2022/04/11 19:09:09;;;;;;;4.80;2.75;;;;;;;10.82;39.35;99705.16;10267531;28;20063;-81
2022/04/11 19:14:11;;;;;;;11.88;4.20;;;;;;;10.63;39.85;99710.72;10269608;28;20082;-81
2022/04/11 19:19:13;;;;;;;7.40;3.97;;;;;;;10.48;40.57;99698.63;10266985;28;20089;-81
2022/04/11 19:24:15;;;;;;;5.93;3.40;;;;;;;10.38;40.05;99713.19;10268023;28;20054;-81
2022/04/11 19:29:17;;;;;;;7.25;3.53;;;;;;;10.30;40.38;99712.81;10268747;28;20136;-81
2022/04/11 19:34:19;;;;;;;9.77;4.82;;;;;;;10.17;40.91;99714.53;10275675;28;20081;-81
2022/04/11 19:39:23;;;;;;;14.23;8.43;;;;;;;9.97;41.95;99730.59;10278088;28;20053;-81
2022/04/11 19:44:26;;;;;;;11.60;6.20;;;;;;;9.85;42.01;99728.72;10276768;28;20082;-81
2022/04/11 19:54:48;;;;;;;8.73;4.33;;;;;;;9.57;42.76;99730.31;10277362;28;20096;-81
2022/04/11 19:59:51;;;;;;;10.27;4.63;;;;;;;9.52;43.15;99731.53;10276314;28;20142;-81
2022/04/11 20:04:53;;;;;;;8.02;4.65;;;;;;;9.44;42.79;99733.72;10277528;28;20058;-81
2022/04/11 20:09:55;;;;;;;7.88;4.50;;;;;;;9.33;43.60;99733.50;10277728;28;20684;-81
2022/04/11 20:14:58;;;;;;;8.10;4.95;;;;;;;9.24;44.01;99744.50;10275714;28;20059;-81
2022/04/11 20:19:59;;;;;;;10.82;5.78;;;;;;;9.07;44.53;99745.44;10277206;28;21311;-82
2022/04/11 20:25:02;;;;;;;8.32;5.15;;;;;;;8.83;45.30;99749.44;10275771;28;20078;-81
2022/04/11 20:30:10;;;;;;;10.50;6.05;;;;;;;8.77;45.64;99745.38;10276222;28;20072;-81
2022/04/11 20:35:14;;;;;;;7.82;4.07;;;;;;;8.67;46.44;99752.00;10271220;28;20560;-81
2022/04/11 20:40:16;;;;;;;7.63;3.17;;;;;;;8.55;46.67;99746.63;10270977;28;20897;-81
2022/04/11 20:45:30;;;;;;;6.78;2.70;;;;;;;8.50;47.47;99740.84;10272405;28;20539;-81
2022/04/11 20:50:34;;;;;;;6.88;3.55;;;;;;;8.44;47.28;99742.00;10272579;28;20128;-81
2022/04/11 20:55:42;;;;;;;7.57;3.97;;;;;;;8.38;47.18;99747.56;10275822;28;20157;-81
2022/04/11 21:00:45;;;;;;;6.68;3.65;;;;;;;8.20;47.64;99737.28;10273428;28;20047;-81
2022/04/11 21:05:47;;;;;;;8.10;3.15;;;;;;;8.04;47.76;99739.78;10274862;28;20090;-80
2022/04/11 21:10:49;;;;;;;8.23;4.60;;;;;;;7.82;48.50;99732.25;10271872;28;20078;-81
2022/04/11 21:15:51;;;;;;;6.60;3.90;;;;;;;7.90;48.32;99724.03;10281252;28;20132;-81
2022/04/11 21:20:53;;;;;;;6.97;3.10;;;;;;;7.93;48.30;99732.56;10268317;28;20078;-82
2022/04/11 21:25:55;;;;;;;6.88;4.40;;;;;;;7.83;48.52;99733.13;10267519;28;20440;-82
2022/04/11 21:30:59;;;;;;;7.53;4.22;;;;;;;7.73;48.94;99737.94;10267153;28;20058;-82
2022/04/11 21:36:00;;;;;;;7.90;3.78;;;;;;;7.64;49.29;99735.81;10271368;28;20051;-82
2022/04/11 21:41:02;;;;;;;6.80;3.70;;;;;;;7.58;49.12;99728.31;10265599;28;20077;-82
2022/04/11 21:46:05;;;;;;;5.93;3.40;;;;;;;7.57;49.62;99725.81;10263455;28;20524;-83
2022/04/11 21:51:07;;;;;;;9.50;5.63;;;;;;;7.50;49.93;99720.06;10269292;28;20051;-82
2022/04/11 21:56:09;;;;;;;8.68;4.53;;;;;;;7.47;49.98;99719.38;10266641;28;20057;-82
2022/04/11 22:01:11;;;;;;;7.53;3.70;;;;;;;7.39;50.25;99719.75;10264994;28;20117;-82
2022/04/11 22:06:14;;;;;;;4.95;2.90;;;;;;;7.37;50.28;99721.56;10269231;28;20063;-83
2022/04/11 22:11:16;;;;;;;6.80;4.00;;;;;;;7.29;50.35;99725.47;10271403;28;20138;-83
2022/04/11 22:16:18;;;;;;;8.13;3.75;;;;;;;7.12;50.58;99718.53;10273066;28;20145;-83
2022/04/11 22:21:20;;;;;;;6.88;3.92;;;;;;;6.96;50.64;99717.56;10263175;28;20049;-83
2022/04/11 22:26:22;;;;;;;6.43;3.78;;;;;;;6.87;51.34;99718.03;10273061;28;20136;-83
2022/04/11 22:31:25;;;;;;;9.40;4.45;;;;;;;6.85;51.28;99710.31;10270733;28;20133;-83
2022/04/11 22:36:27;;;;;;;8.60;3.85;;;;;;;6.82;51.60;99709.59;10264297;28;20428;-82
2022/04/11 22:41:29;;;;;;;6.57;3.60;;;;;;;6.77;51.56;99708.97;10269178;28;20055;-83
2022/04/11 22:46:31;;;;;;;8.68;4.60;;;;;;;6.74;51.67;99702.16;10270146;28;20552;-83
2022/04/11 22:51:32;;;;;;;9.52;4.63;;;;;;;6.66;51.68;99703.44;10270939;28;20133;-82
2022/04/11 22:56:34;;;;;;;6.80;4.15;;;;;;;6.61;51.99;99688.09;10272357;28;20065;-83
2022/04/11 23:01:36;;;;;;;8.10;4.30;;;;;;;6.54;51.96;99689.28;10267447;28;20439;-82
2022/04/11 23:06:37;;;;;;;7.90;4.60;;;;;;;6.50;52.26;99686.88;10277530;28;20154;-82
2022/04/11 23:11:39;;;;;;;7.13;4.45;;;;;;;6.48;52.20;99689.56;10278906;28;20043;-83
2022/04/11 23:16:41;;;;;;;9.25;5.95;;;;;;;6.44;52.27;99695.81;10279099;28;20137;-83
2022/04/11 23:21:43;;;;;;;10.98;6.38;;;;;;;6.32;52.49;99686.00;10279494;28;20042;-83
2022/04/11 23:26:44;;;;;;;9.02;5.93;;;;;;;6.23;52.58;99681.19;10279667;28;20516;-83
2022/04/11 23:31:55;;;;;;;9.52;5.50;;;;;;;6.16;53.29;99682.41;10276217;28;20505;-82
2022/04/11 23:36:57;;;;;;;11.45;6.03;;;;;;;6.13;52.97;99679.91;10274159;28;20057;-83
2022/04/11 23:41:59;;;;;;;9.57;6.00;;;;;;;6.02;52.91;99680.41;10276815;28;20087;-83
2022/04/11 23:47:02;;;;;;;8.60;5.38;;;;;;;5.94;53.38;99672.13;10274962;28;20061;-83
2022/04/11 23:52:04;;;;;;;7.97;4.25;;;;;;;5.93;53.66;99665.25;10275603;28;20501;-83
2022/04/11 23:57:06;;;;;;;9.50;4.25;;;;;;;5.92;53.78;99660.16;10276794;28;20130;-82
